sensor_id;sensor_type;location;lat;lon;timestamp;pressure;altitude;pressure_sealevel;temperature;humidity
42111;BME280;27766;52.174;5.456;2023-05-25T00:00:42;102554.47;;;11.30;100.00
42111;BME280;27766;52.174;5.456;2023-05-25T00:03:34;102556.84;;;11.25;100.00
42111;BME280;27766;52.174;5.456;2023-05-25T00:06:02;102548.06;;;11.21;100.00
42111;BME280;27766;52.174;5.456;2023-05-25T00:08:31;102532.00;;;11.09;100.00
42111;BME280;27766;52.174;5.456;2023-05-25T00:10:58;102553.06;;;11.17;100.00
42111;BME280;27766;52.174;5.456;2023-05-25T00:13:26;102555.53;;;11.14;100.00
42111;BME280;27766;52.174;5.456;2023-05-25T00:15:54;102552.94;;;11.14;100.00
42111;BME280;27766;52.174;5.456;2023-05-25T00:18:22;102559.75;;;11.12;100.00
42111;BME280;27766;52.174;5.456;2023-05-25T00:20:51;102554.44;;;11.08;100.00
42111;BME280;27766;52.174;5.456;2023-05-25T00:23:24;102568.41;;;11.12;100.00
42111;BME280;27766;52.174;5.456;2023-05-25T00:25:51;102554.66;;;10.93;100.00
42111;BME280;27766;52.174;5.456;2023-05-25T00:28:18;102568.56;;;10.96;100.00
42111;BME280;27766;52.174;5.456;2023-05-25T00:30:47;102565.78;;;10.91;100.00
42111;BME280;27766;52.174;5.456;2023-05-25T00:33:15;102565.69;;;10.89;100.00
42111;BME280;27766;52.174;5.456;2023-05-25T00:35:42;102574.22;;;10.87;100.00
42111;BME280;27766;52.174;5.456;2023-05-25T00:38:12;102575.03;;;10.86;100.00
42111;BME280;27766;52.174;5.456;2023-05-25T00:40:40;102563.66;;;10.82;100.00
42111;BME280;27766;52.174;5.456;2023-05-25T00:43:10;102579.28;;;10.84;100.00
42111;BME280;27766;52.174;5.456;2023-05-25T00:45:39;102572.16;;;10.80;100.00
42111;BME280;27766;52.174;5.456;2023-05-25T00:48:07;102573.94;;;10.81;100.00
42111;BME280;27766;52.174;5.456;2023-05-25T00:50:40;102578.16;;;10.79;100.00
42111;BME280;27766;52.174;5.456;2023-05-25T00:53:09;102566.56;;;10.70;100.00
42111;BME280;27766;52.174;5.456;2023-05-25T00:55:44;102576.94;;;10.70;100.00
42111;BME280;27766;52.174;5.456;2023-05-25T00:58:12;102579.31;;;10.66;100.00
42111;BME280;27766;52.174;5.456;2023-05-25T01:00:41;102586.22;;;10.65;100.00
42111;BME280;27766;52.174;5.456;2023-05-25T01:03:14;102573.31;;;10.67;100.00
42111;BME280;27766;52.174;5.456;2023-05-25T01:05:50;102575.78;;;10.64;100.00
42111;BME280;27766;52.174;5.456;2023-05-25T01:08:21;102574.88;;;10.63;100.00
42111;BME280;27766;52.174;5.456;2023-05-25T01:10:51;102580.06;;;10.63;100.00
42111;BME280;27766;52.174;5.456;2023-05-25T01:13:20;102581.84;;;10.64;100.00
42111;BME280;27766;52.174;5.456;2023-05-25T01:15:48;102590.22;;;10.58;100.00
42111;BME280;27766;52.174;5.456;2023-05-25T01:18:17;102580.25;;;10.48;100.00
42111;BME280;27766;52.174;5.456;2023-05-25T01:21:08;102590.00;;;10.54;100.00
42111;BME280;27766;52.174;5.456;2023-05-25T01:23:51;102589.88;;;10.51;100.00
42111;BME280;27766;52.174;5.456;2023-05-25T01:26:25;102588.09;;;10.50;100.00
42111;BME280;27766;52.174;5.456;2023-05-25T01:28:56;102591.50;;;10.49;100.00
42111;BME280;27766;52.174;5.456;2023-05-25T01:31:24;102580.69;;;10.39;100.00
42111;BME280;27766;52.174;5.456;2023-05-25T01:33:52;102591.22;;;10.42;100.00
42111;BME280;27766;52.174;5.456;2023-05-25T01:36:20;102591.22;;;10.42;100.00
42111;BME280;27766;52.174;5.456;2023-05-25T01:38:48;102584.03;;;10.37;100.00
42111;BME280;27766;52.174;5.456;2023-05-25T01:41:15;102587.19;;;10.31;100.00
42111;BME280;27766;52.174;5.456;2023-05-25T01:43:43;102599.56;;;10.37;100.00
42111;BME280;27766;52.174;5.456;2023-05-25T01:46:17;102593.31;;;10.33;100.00
42111;BME280;27766;52.174;5.456;2023-05-25T01:49:05;102600.34;;;10.36;100.00
42111;BME280;27766;52.174;5.456;2023-05-25T01:51:47;102586.03;;;10.24;100.00
42111;BME280;27766;52.174;5.456;2023-05-25T01:54:25;102599.84;;;10.25;100.00
42111;BME280;27766;52.174;5.456;2023-05-25T01:56:57;102605.69;;;10.21;100.00
42111;BME280;27766;52.174;5.456;2023-05-25T01:59:28;102586.41;;;10.14;100.00
42111;BME280;27766;52.174;5.456;2023-05-25T02:01:58;102602.94;;;10.18;100.00
42111;BME280;27766;52.174;5.456;2023-05-25T02:04:28;102591.63;;;10.16;100.00
42111;BME280;27766;52.174;5.456;2023-05-25T02:06:55;102600.38;;;10.18;100.00
42111;BME280;27766;52.174;5.456;2023-05-25T02:09:23;102598.47;;;10.13;100.00
42111;BME280;27766;52.174;5.456;2023-05-25T02:11:51;102599.78;;;10.05;100.00
42111;BME280;27766;52.174;5.456;2023-05-25T02:14:19;102595.34;;;10.03;100.00
42111;BME280;27766;52.174;5.456;2023-05-25T02:16:47;102600.31;;;9.98;100.00
42111;BME280;27766;52.174;5.456;2023-05-25T02:19:15;102602.97;;;10.00;100.00
42111;BME280;27766;52.174;5.456;2023-05-25T02:21:42;102592.44;;;9.96;100.00
42111;BME280;27766;52.174;5.456;2023-05-25T02:24:10;102601.13;;;9.97;100.00
42111;BME280;27766;52.174;5.456;2023-05-25T02:26:40;102599.19;;;9.93;100.00
42111;BME280;27766;52.174;5.456;2023-05-25T02:29:07;102600.06;;;9.93;100.00
42111;BME280;27766;52.174;5.456;2023-05-25T02:31:36;102603.31;;;9.89;100.00
42111;BME280;27766;52.174;5.456;2023-05-25T02:34:04;102610.19;;;9.89;100.00
42111;BME280;27766;52.174;5.456;2023-05-25T02:36:32;102605.59;;;9.83;100.00
42111;BME280;27766;52.174;5.456;2023-05-25T02:39:01;102607.22;;;9.81;100.00
42111;BME280;27766;52.174;5.456;2023-05-25T02:41:29;102609.81;;;9.81;100.00
42111;BME280;27766;52.174;5.456;2023-05-25T02:43:56;102608.06;;;9.80;100.00
42111;BME280;27766;52.174;5.456;2023-05-25T02:46:25;102609.66;;;9.78;100.00
42111;BME280;27766;52.174;5.456;2023-05-25T02:48:52;102617.44;;;9.78;100.00
42111;BME280;27766;52.174;5.456;2023-05-25T02:51:20;102612.31;;;9.79;100.00
42111;BME280;27766;52.174;5.456;2023-05-25T02:53:51;102620.09;;;9.79;100.00
42111;BME280;27766;52.174;5.456;2023-05-25T02:56:19;102611.44;;;9.79;100.00
42111;BME280;27766;52.174;5.456;2023-05-25T02:58:49;102613.94;;;9.77;100.00
42111;BME280;27766;52.174;5.456;2023-05-25T03:01:17;102598.00;;;9.68;100.00
42111;BME280;27766;52.174;5.456;2023-05-25T03:03:45;102620.28;;;9.66;100.00
42111;BME280;27766;52.174;5.456;2023-05-25T03:06:13;102616.66;;;9.62;100.00
42111;BME280;27766;52.174;5.456;2023-05-25T03:08:41;102626.19;;;9.63;100.00
42111;BME280;27766;52.174;5.456;2023-05-25T03:11:08;102633.03;;;9.63;100.00
42111;BME280;27766;52.174;5.456;2023-05-25T03:13:36;102628.69;;;9.62;100.00
42111;BME280;27766;52.174;5.456;2023-05-25T03:16:07;102629.41;;;9.59;100.00
42111;BME280;27766;52.174;5.456;2023-05-25T03:18:35;102631.63;;;9.52;100.00
42111;BME280;27766;52.174;5.456;2023-05-25T03:21:06;102638.41;;;9.49;100.00
42111;BME280;27766;52.174;5.456;2023-05-25T03:23:34;102640.75;;;9.45;100.00
42111;BME280;27766;52.174;5.456;2023-05-25T03:26:02;102629.63;;;9.46;100.00
42111;BME280;27766;52.174;5.456;2023-05-25T03:28:29;102632.38;;;9.49;100.00
42111;BME280;27766;52.174;5.456;2023-05-25T03:30:57;102629.44;;;9.43;100.00
42111;BME280;27766;52.174;5.456;2023-05-25T03:33:24;102630.91;;;9.38;100.00
42111;BME280;27766;52.174;5.456;2023-05-25T03:35:51;102638.59;;;9.36;100.00
42111;BME280;27766;52.174;5.456;2023-05-25T03:38:19;102637.78;;;9.37;100.00
42111;BME280;27766;52.174;5.456;2023-05-25T03:40:47;102637.06;;;9.40;100.00
42111;BME280;27766;52.174;5.456;2023-05-25T03:43:15;102629.22;;;9.38;100.00
42111;BME280;27766;52.174;5.456;2023-05-25T03:45:43;102637.00;;;9.38;100.00
42111;BME280;27766;52.174;5.456;2023-05-25T03:48:12;102637.78;;;9.37;100.00
42111;BME280;27766;52.174;5.456;2023-05-25T03:50:39;102626.41;;;9.33;100.00
42111;BME280;27766;52.174;5.456;2023-05-25T03:53:09;102625.19;;;9.27;100.00
42111;BME280;27766;52.174;5.456;2023-05-25T03:55:37;102631.09;;;9.24;100.00
42111;BME280;27766;52.174;5.456;2023-05-25T03:58:05;102621.50;;;9.22;100.00
42111;BME280;27766;52.174;5.456;2023-05-25T04:00:32;102632.78;;;9.24;100.00
42111;BME280;27766;52.174;5.456;2023-05-25T04:02:59;102634.66;;;9.26;100.00
42111;BME280;27766;52.174;5.456;2023-05-25T04:05:27;102641.00;;;9.33;100.00
42111;BME280;27766;52.174;5.456;2023-05-25T04:07:54;102635.69;;;9.30;100.00
42111;BME280;27766;52.174;5.456;2023-05-25T04:10:22;102636.50;;;9.29;100.00
42111;BME280;27766;52.174;5.456;2023-05-25T04:12:49;102641.91;;;9.33;100.00
42111;BME280;27766;52.174;5.456;2023-05-25T04:15:18;102643.75;;;9.36;100.00
42111;BME280;27766;52.174;5.456;2023-05-25T04:17:48;102632.31;;;9.31;100.00
42111;BME280;27766;52.174;5.456;2023-05-25T04:20:15;102647.63;;;9.44;100.00
42111;BME280;27766;52.174;5.456;2023-05-25T04:22:43;102646.97;;;9.48;100.00
42111;BME280;27766;52.174;5.456;2023-05-25T04:25:11;102660.31;;;9.56;100.00
42111;BME280;27766;52.174;5.456;2023-05-25T04:27:39;102663.63;;;9.54;100.00
42111;BME280;27766;52.174;5.456;2023-05-25T04:30:08;102657.63;;;9.55;100.00
42111;BME280;27766;52.174;5.456;2023-05-25T04:32:37;102669.84;;;9.57;100.00
42111;BME280;27766;52.174;5.456;2023-05-25T04:35:04;102664.75;;;9.59;100.00
42111;BME280;27766;52.174;5.456;2023-05-25T04:37:32;102669.41;;;9.66;100.00
42111;BME280;27766;52.174;5.456;2023-05-25T04:39:59;102665.91;;;9.65;100.00
42111;BME280;27766;52.174;5.456;2023-05-25T04:42:27;102668.09;;;9.74;100.00
42111;BME280;27766;52.174;5.456;2023-05-25T04:44:54;102673.59;;;9.80;100.00
42111;BME280;27766;52.174;5.456;2023-05-25T04:47:22;102667.97;;;9.89;100.00
42111;BME280;27766;52.174;5.456;2023-05-25T04:49:52;102664.75;;;9.93;100.00
42111;BME280;27766;52.174;5.456;2023-05-25T04:52:20;102668.44;;;9.98;100.00
42111;BME280;27766;52.174;5.456;2023-05-25T04:54:48;102678.03;;;10.01;100.00
42111;BME280;27766;52.174;5.456;2023-05-25T04:57:15;102672.34;;;10.08;100.00
42111;BME280;27766;52.174;5.456;2023-05-25T04:59:43;102673.25;;;10.09;100.00
42111;BME280;27766;52.174;5.456;2023-05-25T05:02:11;102680.66;;;10.19;100.00
42111;BME280;27766;52.174;5.456;2023-05-25T05:04:39;102684.66;;;10.30;100.00
42111;BME280;27766;52.174;5.456;2023-05-25T05:07:07;102676.22;;;10.35;100.00
42111;BME280;27766;52.174;5.456;2023-05-25T05:09:35;102687.34;;;10.50;100.00
42111;BME280;27766;52.174;5.456;2023-05-25T05:12:03;102685.94;;;10.57;100.00
42111;BME280;27766;52.174;5.456;2023-05-25T05:14:30;102695.13;;;10.68;100.00
42111;BME280;27766;52.174;5.456;2023-05-25T05:16:58;102697.41;;;10.80;100.00
42111;BME280;27766;52.174;5.456;2023-05-25T05:19:25;102697.81;;;10.89;100.00
42111;BME280;27766;52.174;5.456;2023-05-25T05:21:52;102701.59;;;10.96;100.00
42111;BME280;27766;52.174;5.456;2023-05-25T05:24:20;102700.16;;;11.03;100.00
42111;BME280;27766;52.174;5.456;2023-05-25T05:26:48;102697.84;;;11.09;100.00
42111;BME280;27766;52.174;5.456;2023-05-25T05:29:24;102704.13;;;11.14;100.00
42111;BME280;27766;52.174;5.456;2023-05-25T05:31:54;102711.56;;;11.26;100.00
42111;BME280;27766;52.174;5.456;2023-05-25T05:34:21;102708.38;;;11.32;100.00
42111;BME280;27766;52.174;5.456;2023-05-25T05:36:49;102711.44;;;11.43;100.00
42111;BME280;27766;52.174;5.456;2023-05-25T05:39:27;102701.28;;;11.47;100.00
42111;BME280;27766;52.174;5.456;2023-05-25T05:41:55;102711.16;;;11.56;100.00
42111;BME280;27766;52.174;5.456;2023-05-25T05:44:23;102710.34;;;11.57;100.00
42111;BME280;27766;52.174;5.456;2023-05-25T05:46:58;102711.34;;;11.61;100.00
42111;BME280;27766;52.174;5.456;2023-05-25T05:49:29;102717.72;;;11.67;100.00
42111;BME280;27766;52.174;5.456;2023-05-25T05:51:57;102708.56;;;11.76;100.00
42111;BME280;27766;52.174;5.456;2023-05-25T05:54:24;102722.91;;;11.88;100.00
42111;BME280;27766;52.174;5.456;2023-05-25T05:56:54;102722.34;;;11.96;100.00
42111;BME280;27766;52.174;5.456;2023-05-25T05:59:21;102727.91;;;11.84;100.00
42111;BME280;27766;52.174;5.456;2023-05-25T06:01:48;102736.84;;;11.91;100.00
42111;BME280;27766;52.174;5.456;2023-05-25T06:04:18;102738.16;;;12.00;100.00
42111;BME280;27766;52.174;5.456;2023-05-25T06:06:45;102736.91;;;12.12;100.00
42111;BME280;27766;52.174;5.456;2023-05-25T06:09:13;102731.66;;;12.31;100.00
42111;BME280;27766;52.174;5.456;2023-05-25T06:11:40;102737.16;;;12.39;100.00
42111;BME280;27766;52.174;5.456;2023-05-25T06:14:07;102746.78;;;12.42;100.00
42111;BME280;27766;52.174;5.456;2023-05-25T06:16:35;102749.00;;;12.54;100.00
42111;BME280;27766;52.174;5.456;2023-05-25T06:19:03;102737.31;;;12.65;100.00
42111;BME280;27766;52.174;5.456;2023-05-25T06:21:30;102738.00;;;12.82;100.00
42111;BME280;27766;52.174;5.456;2023-05-25T06:23:57;102742.25;;;13.03;100.00
42111;BME280;27766;52.174;5.456;2023-05-25T06:26:24;102741.41;;;13.04;100.00
42111;BME280;27766;52.174;5.456;2023-05-25T06:28:53;102737.09;;;13.04;100.00
42111;BME280;27766;52.174;5.456;2023-05-25T06:31:20;102746.78;;;13.08;100.00
42111;BME280;27766;52.174;5.456;2023-05-25T06:33:48;102745.00;;;13.30;100.00
42111;BME280;27766;52.174;5.456;2023-05-25T06:36:15;102743.25;;;13.53;100.00
42111;BME280;27766;52.174;5.456;2023-05-25T06:38:42;102751.94;;;13.78;100.00
42111;BME280;27766;52.174;5.456;2023-05-25T06:41:10;102750.09;;;14.00;100.00
42111;BME280;27766;52.174;5.456;2023-05-25T06:43:41;102752.97;;;14.07;100.00
42111;BME280;27766;52.174;5.456;2023-05-25T06:46:08;102749.78;;;14.16;100.00
42111;BME280;27766;52.174;5.456;2023-05-25T06:48:37;102758.63;;;14.49;100.00
42111;BME280;27766;52.174;5.456;2023-05-25T06:51:05;102752.47;;;14.72;100.00
42111;BME280;27766;52.174;5.456;2023-05-25T06:53:32;102762.31;;;14.54;100.00
42111;BME280;27766;52.174;5.456;2023-05-25T06:55:59;102762.88;;;14.45;100.00
42111;BME280;27766;52.174;5.456;2023-05-25T06:58:27;102764.94;;;14.28;100.00
42111;BME280;27766;52.174;5.456;2023-05-25T07:00:54;102768.28;;;14.24;100.00
42111;BME280;27766;52.174;5.456;2023-05-25T07:03:22;102772.16;;;14.37;100.00
42111;BME280;27766;52.174;5.456;2023-05-25T07:05:49;102767.69;;;14.60;100.00
42111;BME280;27766;52.174;5.456;2023-05-25T07:08:17;102775.50;;;14.86;100.00
42111;BME280;27766;52.174;5.456;2023-05-25T07:10:44;102780.97;;;14.95;100.00
42111;BME280;27766;52.174;5.456;2023-05-25T07:13:14;102784.94;;;14.82;100.00
42111;BME280;27766;52.174;5.456;2023-05-25T07:15:41;102783.66;;;14.97;100.00
42111;BME280;27766;52.174;5.456;2023-05-25T07:18:10;102792.59;;;15.05;100.00
42111;BME280;27766;52.174;5.456;2023-05-25T07:20:39;102780.72;;;14.86;100.00
42111;BME280;27766;52.174;5.456;2023-05-25T07:23:11;102788.97;;;14.72;100.00
42111;BME280;27766;52.174;5.456;2023-05-25T07:25:40;102787.59;;;14.84;100.00
42111;BME280;27766;52.174;5.456;2023-05-25T07:28:10;102788.78;;;14.66;100.00
42111;BME280;27766;52.174;5.456;2023-05-25T07:30:39;102785.13;;;14.61;100.00
42111;BME280;27766;52.174;5.456;2023-05-25T07:33:07;102797.56;;;14.70;100.00
42111;BME280;27766;52.174;5.456;2023-05-25T07:35:34;102795.41;;;14.58;100.00
42111;BME280;27766;52.174;5.456;2023-05-25T07:38:02;102798.88;;;14.57;100.00
42111;BME280;27766;52.174;5.456;2023-05-25T07:40:33;102805.91;;;14.60;100.00
42111;BME280;27766;52.174;5.456;2023-05-25T07:43:00;102807.63;;;14.59;100.00
42111;BME280;27766;52.174;5.456;2023-05-25T07:45:27;102803.38;;;14.35;100.00
42111;BME280;27766;52.174;5.456;2023-05-25T07:47:55;102811.72;;;14.52;100.00
42111;BME280;27766;52.174;5.456;2023-05-25T07:50:22;102809.41;;;14.60;100.00
42111;BME280;27766;52.174;5.456;2023-05-25T07:52:50;102810.47;;;14.39;100.00
42111;BME280;27766;52.174;5.456;2023-05-25T07:55:17;102802.81;;;14.44;100.00
42111;BME280;27766;52.174;5.456;2023-05-25T07:57:46;102803.09;;;14.53;100.00
42111;BME280;27766;52.174;5.456;2023-05-25T08:00:13;102810.72;;;14.73;100.00
42111;BME280;27766;52.174;5.456;2023-05-25T08:02:41;102820.84;;;14.91;100.00
42111;BME280;27766;52.174;5.456;2023-05-25T08:05:09;102814.50;;;14.83;100.00
42111;BME280;27766;52.174;5.456;2023-05-25T08:07:36;102828.47;;;14.85;100.00
42111;BME280;27766;52.174;5.456;2023-05-25T08:10:08;102824.13;;;14.85;100.00
42111;BME280;27766;52.174;5.456;2023-05-25T08:12:35;102824.47;;;14.96;100.00
42111;BME280;27766;52.174;5.456;2023-05-25T08:15:15;102830.44;;;15.21;100.00
42111;BME280;27766;52.174;5.456;2023-05-25T08:17:43;102836.47;;;15.18;100.00
42111;BME280;27766;52.174;5.456;2023-05-25T08:20:11;102820.59;;;15.40;100.00
42111;BME280;27766;52.174;5.456;2023-05-25T08:22:38;102828.06;;;15.58;100.00
42111;BME280;27766;52.174;5.456;2023-05-25T08:25:07;102835.28;;;15.68;100.00
42111;BME280;27766;52.174;5.456;2023-05-25T08:27:35;102829.16;;;15.66;100.00
42111;BME280;27766;52.174;5.456;2023-05-25T08:30:06;102832.94;;;15.77;100.00
42111;BME280;27766;52.174;5.456;2023-05-25T08:32:33;102829.63;;;15.52;100.00
42111;BME280;27766;52.174;5.456;2023-05-25T08:35:01;102832.72;;;15.39;100.00
42111;BME280;27766;52.174;5.456;2023-05-25T08:37:30;102843.34;;;15.76;100.00
42111;BME280;27766;52.174;5.456;2023-05-25T08:39:58;102838.09;;;15.74;100.00
42111;BME280;27766;52.174;5.456;2023-05-25T08:42:28;102843.19;;;16.00;100.00
42111;BME280;27766;52.174;5.456;2023-05-25T08:44:55;102841.19;;;16.23;100.00
42111;BME280;27766;52.174;5.456;2023-05-25T08:47:23;102842.03;;;16.22;100.00
42111;BME280;27766;52.174;5.456;2023-05-25T08:49:54;102843.94;;;16.28;100.00
42111;BME280;27766;52.174;5.456;2023-05-25T08:52:23;102848.91;;;15.87;100.00
42111;BME280;27766;52.174;5.456;2023-05-25T08:54:56;102835.00;;;15.86;100.00
42111;BME280;27766;52.174;5.456;2023-05-25T08:57:33;102840.63;;;15.71;100.00
42111;BME280;27766;52.174;5.456;2023-05-25T09:00:07;102838.09;;;15.74;100.00
42111;BME280;27766;52.174;5.456;2023-05-25T09:05:17;102836.53;;;15.81;100.00
42111;BME280;27766;52.174;5.456;2023-05-25T09:07:45;102829.66;;;15.83;100.00
42111;BME280;27766;52.174;5.456;2023-05-25T09:10:17;102823.72;;;15.89;100.00
42111;BME280;27766;52.174;5.456;2023-05-25T09:12:45;102833.31;;;16.22;100.00
42111;BME280;27766;52.174;5.456;2023-05-25T09:15:12;102837.66;;;16.56;100.00
42111;BME280;27766;52.174;5.456;2023-05-25T09:17:40;102833.25;;;16.54;100.00
42111;BME280;27766;52.174;5.456;2023-05-25T09:20:10;102841.31;;;16.63;100.00
42111;BME280;27766;52.174;5.456;2023-05-25T09:22:40;102834.91;;;16.87;100.00
42111;BME280;27766;52.174;5.456;2023-05-25T09:25:09;102825.19;;;17.18;100.00
42111;BME280;27766;52.174;5.456;2023-05-25T09:27:37;102837.38;;;17.57;98.57
42111;BME280;27766;52.174;5.456;2023-05-25T09:30:05;102830.66;;;17.70;91.02
42111;BME280;27766;52.174;5.456;2023-05-25T09:32:34;102834.56;;;17.49;93.74
42111;BME280;27766;52.174;5.456;2023-05-25T09:35:13;102829.84;;;17.33;93.91
42111;BME280;27766;52.174;5.456;2023-05-25T09:37:41;102824.72;;;17.37;95.11
42111;BME280;27766;52.174;5.456;2023-05-25T09:40:10;102834.31;;;17.80;93.15
42111;BME280;27766;52.174;5.456;2023-05-25T09:42:37;102831.41;;;18.09;89.21
42111;BME280;27766;52.174;5.456;2023-05-25T09:45:05;102836.09;;;17.81;93.58
42111;BME280;27766;52.174;5.456;2023-05-25T09:47:35;102836.84;;;17.32;100.00
42111;BME280;27766;52.174;5.456;2023-05-25T09:50:03;102844.13;;;17.07;100.00
42111;BME280;27766;52.174;5.456;2023-05-25T09:52:31;102844.38;;;16.45;100.00
42111;BME280;27766;52.174;5.456;2023-05-25T09:55:00;102841.78;;;16.46;100.00
42111;BME280;27766;52.174;5.456;2023-05-25T09:57:28;102843.25;;;16.70;100.00
42111;BME280;27766;52.174;5.456;2023-05-25T09:59:56;102823.50;;;16.83;100.00
42111;BME280;27766;52.174;5.456;2023-05-25T10:02:23;102818.84;;;17.48;100.00
42111;BME280;27766;52.174;5.456;2023-05-25T10:04:53;102818.34;;;17.67;96.20
42111;BME280;27766;52.174;5.456;2023-05-25T10:07:21;102834.44;;;17.86;92.13
42111;BME280;27766;52.174;5.456;2023-05-25T10:09:49;102828.19;;;17.79;90.88
42111;BME280;27766;52.174;5.456;2023-05-25T10:12:20;102827.75;;;18.00;91.34
42111;BME280;27766;52.174;5.456;2023-05-25T10:14:50;102837.69;;;18.18;88.95
42111;BME280;27766;52.174;5.456;2023-05-25T10:17:21;102825.22;;;18.05;88.93
42111;BME280;27766;52.174;5.456;2023-05-25T10:19:55;102828.66;;;18.02;90.29
42111;BME280;27766;52.174;5.456;2023-05-25T10:22:38;102836.72;;;18.12;91.78
42111;BME280;27766;52.174;5.456;2023-05-25T10:28:13;102837.38;;;18.00;88.53
42111;BME280;27766;52.174;5.456;2023-05-25T10:30:39;102835.13;;;18.22;87.08
42111;BME280;27766;52.174;5.456;2023-05-25T10:33:09;102842.16;;;18.24;83.52
42111;BME280;27766;52.174;5.456;2023-05-25T10:35:38;102843.69;;;18.13;84.64
42111;BME280;27766;52.174;5.456;2023-05-25T10:38:25;102840.97;;;17.64;87.93
42111;BME280;27766;52.174;5.456;2023-05-25T10:40:55;102842.06;;;17.74;86.20
42111;BME280;27766;52.174;5.456;2023-05-25T10:43:22;102849.91;;;17.74;85.44
42111;BME280;27766;52.174;5.456;2023-05-25T10:45:50;102855.00;;;17.67;76.87
42111;BME280;27766;52.174;5.456;2023-05-25T10:48:19;102848.47;;;17.47;80.14
42111;BME280;27766;52.174;5.456;2023-05-25T10:50:51;102842.47;;;17.51;85.05
42111;BME280;27766;52.174;5.456;2023-05-25T10:53:19;102840.41;;;17.36;83.91
42111;BME280;27766;52.174;5.456;2023-05-25T10:58:22;102850.81;;;17.76;72.51
42111;BME280;27766;52.174;5.456;2023-05-25T11:01:05;102839.75;;;17.89;71.83
42111;BME280;27766;52.174;5.456;2023-05-25T11:06:21;102842.50;;;17.95;80.56
42111;BME280;27766;52.174;5.456;2023-05-25T11:11:28;102850.56;;;17.63;90.80
42111;BME280;27766;52.174;5.456;2023-05-25T11:14:41;102844.66;;;17.31;93.68
42111;BME280;27766;52.174;5.456;2023-05-25T11:17:21;102845.34;;;17.63;93.98
42111;BME280;27766;52.174;5.456;2023-05-25T11:19:50;102850.69;;;17.69;92.23
42111;BME280;27766;52.174;5.456;2023-05-25T11:22:31;102850.16;;;17.86;91.26
42111;BME280;27766;52.174;5.456;2023-05-25T11:25:01;102842.28;;;17.86;88.92
42111;BME280;27766;52.174;5.456;2023-05-25T11:27:30;102850.41;;;17.98;88.76
42111;BME280;27766;52.174;5.456;2023-05-25T11:29:58;102854.75;;;17.96;88.88
42111;BME280;27766;52.174;5.456;2023-05-25T11:32:26;102848.94;;;18.13;89.79
42111;BME280;27766;52.174;5.456;2023-05-25T11:34:55;102853.69;;;18.35;75.86
42111;BME280;27766;52.174;5.456;2023-05-25T11:37:26;102846.31;;;18.62;75.42
42111;BME280;27766;52.174;5.456;2023-05-25T11:39:57;102843.38;;;18.45;79.64
42111;BME280;27766;52.174;5.456;2023-05-25T11:42:24;102844.34;;;18.50;74.10
42111;BME280;27766;52.174;5.456;2023-05-25T11:44:52;102845.25;;;18.52;73.39
42111;BME280;27766;52.174;5.456;2023-05-25T11:47:21;102845.22;;;18.50;76.87
42111;BME280;27766;52.174;5.456;2023-05-25T11:49:54;102849.28;;;18.31;81.47
42111;BME280;27766;52.174;5.456;2023-05-25T11:52:21;102843.03;;;18.25;72.63
42111;BME280;27766;52.174;5.456;2023-05-25T11:54:49;102844.47;;;18.07;76.66
42111;BME280;27766;52.174;5.456;2023-05-25T11:57:21;102840.72;;;17.94;72.39
42111;BME280;27766;52.174;5.456;2023-05-25T11:59:56;102834.94;;;18.11;71.46
42111;BME280;27766;52.174;5.456;2023-05-25T12:02:23;102838.41;;;17.65;73.44
42111;BME280;27766;52.174;5.456;2023-05-25T12:04:54;102834.03;;;17.66;78.92
42111;BME280;27766;52.174;5.456;2023-05-25T12:07:22;102826.81;;;17.97;74.46
42111;BME280;27766;52.174;5.456;2023-05-25T12:10:12;102827.16;;;18.15;77.07
42111;BME280;27766;52.174;5.456;2023-05-25T12:12:47;102823.97;;;18.90;70.14
42111;BME280;27766;52.174;5.456;2023-05-25T12:15:25;102821.69;;;19.10;63.86
42111;BME280;27766;52.174;5.456;2023-05-25T12:17:53;102815.72;;;19.22;63.67
42111;BME280;27766;52.174;5.456;2023-05-25T12:20:21;102818.88;;;18.96;66.64
42111;BME280;27766;52.174;5.456;2023-05-25T12:22:48;102802.25;;;18.97;67.06
42111;BME280;27766;52.174;5.456;2023-05-25T12:25:19;102827.06;;;19.18;65.00
42111;BME280;27766;52.174;5.456;2023-05-25T12:27:48;102809.84;;;18.79;68.98
42111;BME280;27766;52.174;5.456;2023-05-25T12:30:15;102821.66;;;18.52;73.69
42111;BME280;27766;52.174;5.456;2023-05-25T12:32:59;102822.00;;;17.76;80.33
42111;BME280;27766;52.174;5.456;2023-05-25T12:35:48;102824.50;;;17.68;84.35
42111;BME280;27766;52.174;5.456;2023-05-25T12:38:17;102822.31;;;17.91;83.22
42111;BME280;27766;52.174;5.456;2023-05-25T12:40:46;102818.19;;;18.02;73.47
42111;BME280;27766;52.174;5.456;2023-05-25T12:43:14;102834.69;;;17.98;73.72
42111;BME280;27766;52.174;5.456;2023-05-25T12:45:46;102832.06;;;17.54;74.81
42111;BME280;27766;52.174;5.456;2023-05-25T12:48:13;102830.34;;;17.56;76.68
42111;BME280;27766;52.174;5.456;2023-05-25T12:50:57;102828.06;;;17.73;78.39
42111;BME280;27766;52.174;5.456;2023-05-25T12:53:24;102833.75;;;17.52;79.48
42111;BME280;27766;52.174;5.456;2023-05-25T12:56:00;102825.16;;;17.59;77.13
42111;BME280;27766;52.174;5.456;2023-05-25T12:58:28;102824.91;;;17.90;76.18
42111;BME280;27766;52.174;5.456;2023-05-25T13:00:56;102828.09;;;17.75;76.07
42111;BME280;27766;52.174;5.456;2023-05-25T13:03:23;102818.69;;;17.84;75.78
42111;BME280;27766;52.174;5.456;2023-05-25T13:05:59;102816.84;;;17.79;72.15
42111;BME280;27766;52.174;5.456;2023-05-25T13:08:27;102819.75;;;17.94;70.33
42111;BME280;27766;52.174;5.456;2023-05-25T13:10:55;102811.03;;;18.43;68.75